Time;durP1;ratioP1;P1;durP2;ratioP2;P2;SDS_P1;SDS_P2;PMS_P1;PMS_P2;Temp;Humidity;BMP_temperature;BMP_pressure;BME280_temperature;BME280_humidity;BME280_pressure;Samples;Min_cycle;Max_cycle;Signal;HPM_P1;HPM_P2
2022/01/13 12:19:04;;;;;;;27.73;25.80;;;;;;;-141.02;70.82;84441.44;5151541;27;20540;-78
2022/01/13 12:21:37;;;;;;;26.13;24.73;;;;;;;-141.02;69.79;84503.63;5151343;27;20190;-79
2022/01/13 12:24:05;;;;;;;29.03;27.43;;;;;;;-141.02;68.89;84488.06;5151216;27;20188;-78
2022/01/13 12:26:50;;;;;;;31.67;29.97;;;;;;;-141.02;68.88;84453.09;5150751;27;20234;-80
2022/01/13 12:29:21;;;;;;;30.43;28.83;;;;;;;-141.02;69.35;84460.88;5151147;27;20245;-78
2022/01/13 12:31:53;;;;;;;29.43;27.63;;;;;;;-141.02;70.03;84064.44;5150801;27;20713;-79
2022/01/13 12:34:48;;;;;;;27.73;26.20;;;;;;;-141.02;69.47;84387.03;5150725;27;20625;-78
2022/01/13 12:37:26;;;;;;;28.33;26.83;;;;;;;-141.02;70.10;84488.06;5151091;27;20184;-78
2022/01/13 12:39:58;;;;;;;25.37;23.97;;;;;;;-141.02;72.29;84400.63;5150684;27;20237;-78
2022/01/13 12:42:28;;;;;;;28.87;27.37;;;;;;;-141.02;73.75;84456.97;5150634;27;20184;-78
2022/01/13 12:47:42;;;;;;;27.43;25.80;;;;;;;-141.02;72.51;84425.88;5150447;27;20214;-80
2022/01/13 12:50:23;;;;;;;29.77;27.87;;;;;;;-141.02;72.83;84484.19;5150708;27;20230;-79
2022/01/13 12:52:51;;;;;;;32.83;30.20;;;;;;;-141.02;72.44;84449.19;5150357;27;20188;-80
2022/01/13 12:55:19;;;;;;;28.60;27.00;;;;;;;-141.02;76.38;84099.41;5150317;27;20681;-78
2022/01/13 12:57:49;;;;;;;27.37;25.87;;;;;;;-141.02;76.46;84107.19;5150556;27;20195;-78
2022/01/13 13:00:20;;;;;;;28.57;26.90;;;;;;;-141.02;75.88;84449.19;5150304;27;20628;-78
2022/01/13 13:02:52;;;;;;;29.90;28.17;;;;;;;-141.02;75.52;84507.50;5150578;27;20263;-76
2022/01/13 13:05:32;;;;;;;27.57;26.07;;;;;;;-141.02;75.70;84517.22;5150094;27;20196;-77
2022/01/13 13:08:00;;;;;;;26.87;25.37;;;;;;;-141.02;76.54;84472.53;5150265;27;20220;-77
2022/01/13 13:10:29;;;;;;;27.93;26.37;;;;;;;-141.02;75.90;84495.84;5150313;27;20649;-77
2022/01/13 13:12:57;;;;;;;26.17;24.67;;;;;;;-141.02;73.88;84087.75;5150259;27;20188;-78
2022/01/13 13:15:42;;;;;;;28.20;26.47;;;;;;;-141.02;74.19;84453.09;5150256;27;20252;-78
2022/01/13 13:18:11;;;;;;;26.20;24.70;;;;;;;-141.02;76.57;84478.34;5143208;27;20269;-81
2022/01/13 13:20:40;;;;;;;26.47;24.80;;;;;;;-141.02;76.08;83821.56;5136048;27;20196;-80
2022/01/13 13:23:10;;;;;;;32.63;30.10;;;;;;;-141.02;76.01;84451.16;5135911;27;20287;-78
2022/01/13 13:25:41;;;;;;;33.83;31.80;;;;;;;-141.02;76.09;84441.44;5135957;27;20228;-80
2022/01/13 13:28:27;;;;;;;31.30;29.17;;;;;;;-141.02;76.22;84441.44;5135839;27;20212;-80
2022/01/13 13:30:56;;;;;;;29.83;28.13;;;;;;;-141.02;77.79;84484.19;5135787;27;20188;-78
2022/01/13 13:33:35;;;;;;;33.17;31.13;;;;;;;-141.02;76.77;84468.63;5135980;27;20188;-76
2022/01/13 13:36:06;;;;;;;30.90;29.00;;;;;;;-141.02;76.45;84472.53;5135966;27;20207;-77
2022/01/13 13:38:33;;;;;;;30.07;28.27;;;;;;;-141.02;76.94;84443.38;5135616;27;20242;-77
2022/01/13 13:41:00;;;;;;;29.63;28.03;;;;;;;-141.02;76.71;84472.53;5135581;27;20193;-77
2022/01/13 13:43:32;;;;;;;30.43;28.50;;;;;;;-141.02;77.73;84480.31;5135519;27;20228;-76
2022/01/13 13:46:04;;;;;;;29.40;27.60;;;;;;;-141.02;77.54;84435.59;5135715;27;20655;-77
2022/01/13 13:48:31;;;;;;;27.30;25.80;;;;;;;-141.02;78.02;84390.91;5135451;27;20228;-76
2022/01/13 13:50:58;;;;;;;29.30;27.50;;;;;;;-141.02;78.89;84476.41;5135383;27;20192;-76
2022/01/13 13:53:28;;;;;;;28.47;26.67;;;;;;;-141.02;77.95;84451.16;5135766;27;20239;-76
2022/01/13 13:55:59;;;;;;;27.23;25.60;;;;;;;-141.02;77.85;84408.41;5135581;27;20188;-76
2022/01/13 13:58:26;;;;;;;26.37;24.87;;;;;;;-141.02;77.79;84394.78;5135270;27;20275;-76
2022/01/13 14:01:06;;;;;;;29.03;27.07;;;;;;;-141.02;79.13;84410.34;5135207;27;20288;-75
2022/01/13 14:03:44;;;;;;;30.53;28.53;;;;;;;-141.02;76.88;84453.09;5135554;27;20184;-75
2022/01/13 14:06:11;;;;;;;31.60;29.70;;;;;;;-141.02;78.93;84410.34;5135337;27;20192;-75
2022/01/13 14:08:53;;;;;;;31.27;29.57;;;;;;;-141.02;80.12;84262.66;5135379;27;20189;-77
2022/01/13 14:11:20;;;;;;;33.70;31.50;;;;;;;-141.02;79.44;84418.13;5135394;27;20545;-76
2022/01/13 14:13:48;;;;;;;31.37;29.53;;;;;;;-141.02;80.31;84443.38;5134977;27;20283;-75
2022/01/13 14:16:15;;;;;;;28.83;27.33;;;;;;;-141.02;80.83;84422.00;5135476;27;20200;-75
2022/01/13 14:18:42;;;;;;;29.20;27.50;;;;;;;-141.02;79.36;84464.75;5134893;27;20224;-75
2022/01/13 14:21:09;;;;;;;49.77;46.13;;;;;;;-141.02;81.17;84422.00;5135071;27;20189;-75
2022/01/13 14:23:41;;;;;;;28.37;26.77;;;;;;;-141.02;80.70;84422.00;5134770;27;20665;-74
2022/01/13 14:26:11;;;;;;;27.33;25.33;;;;;;;-141.02;81.38;84453.09;5134761;27;20276;-74
2022/01/13 14:28:48;;;;;;;27.63;26.13;;;;;;;-141.02;85.01;84445.31;5134559;27;20216;-74
2022/01/13 14:31:15;;;;;;;26.53;24.90;;;;;;;-141.02;87.05;84433.66;5134578;27;20219;-73
2022/01/13 14:33:43;;;;;;;27.40;25.90;;;;;;;-141.02;89.92;84404.50;5134546;27;20196;-74
2022/01/13 14:36:14;;;;;;;27.97;26.37;;;;;;;-141.02;93.49;84388.97;5134530;27;20197;-74
2022/01/13 14:38:51;;;;;;;25.90;24.50;;;;;;;-141.02;96.80;84456.97;5134680;27;20570;-73
2022/01/13 14:41:34;;;;;;;27.87;26.13;;;;;;;-141.02;100.00;84398.69;5134386;27;20220;-74
2022/01/13 14:44:03;;;;;;;25.47;24.07;;;;;;;-141.02;100.00;84418.13;5134744;27;20196;-74
2022/01/13 14:46:34;;;;;;;24.70;23.40;;;;;;;-141.02;100.00;84367.59;5134440;27;20196;-74
2022/01/13 14:49:02;;;;;;;24.67;23.37;;;;;;;-141.02;100.00;84406.44;5134625;27;20188;-73
2022/01/13 14:51:30;;;;;;;24.27;23.07;;;;;;;-141.02;100.00;84404.50;5134540;27;20192;-73
2022/01/13 14:53:59;;;;;;;24.37;23.07;;;;;;;-141.02;100.00;84388.97;5134120;27;20192;-73
2022/01/13 14:56:28;;;;;;;25.63;24.17;;;;;;;-141.02;100.00;84387.03;5134387;27;20247;-73
2022/01/13 14:58:55;;;;;;;24.33;23.03;;;;;;;-141.02;100.00;85028.38;5133977;27;20228;-74
2022/01/13 15:01:23;;;;;;;27.03;25.43;;;;;;;-141.02;100.00;84387.03;5135143;27;20283;-74
2022/01/13 15:03:51;;;;;;;22.37;21.17;;;;;;;-141.02;100.00;84422.00;5133937;27;20197;-75
2022/01/13 15:06:18;;;;;;;25.67;24.17;;;;;;;-141.02;100.00;84371.47;5133838;27;20657;-74
2022/01/13 15:08:45;;;;;;;27.17;25.63;;;;;;;-141.02;100.00;84348.16;5134096;27;20224;-73
2022/01/13 15:11:15;;;;;;;26.93;25.20;;;;;;;-141.02;100.00;84390.91;5133795;27;20249;-74
2022/01/13 15:13:45;;;;;;;22.97;21.77;;;;;;;-141.02;100.00;84359.81;5133762;27;20236;-74
2022/01/13 15:16:12;;;;;;;22.90;21.70;;;;;;;-141.02;100.00;84400.63;5133747;27;20193;-74
2022/01/13 15:18:40;;;;;;;24.13;22.83;;;;;;;-141.02;100.00;84390.91;5134106;27;20273;-74
2022/01/13 15:21:07;;;;;;;22.53;21.30;;;;;;;-141.02;100.00;84414.22;5133968;27;20198;-74
2022/01/13 15:23:36;;;;;;;23.20;21.03;;;;;;;-141.02;100.00;84367.59;5133941;27;20676;-74
2022/01/13 15:26:06;;;;;;;20.17;19.17;;;;;;;-141.02;100.00;84377.31;5133528;27;20196;-76
2022/01/13 15:28:33;;;;;;;21.63;20.17;;;;;;;-141.02;100.00;84352.03;5133808;27;20304;-76
2022/01/13 15:31:02;;;;;;;20.20;19.20;;;;;;;-141.02;100.00;84418.13;5133530;27;20192;-74
2022/01/13 15:33:29;;;;;;;21.40;20.20;;;;;;;-141.02;100.00;84398.69;5133732;27;20576;-75
2022/01/13 15:35:56;;;;;;;20.43;19.43;;;;;;;-141.02;100.00;84383.13;5133351;27;20222;-75
2022/01/13 15:38:23;;;;;;;20.40;19.33;;;;;;;-141.02;100.00;84398.69;5133657;27;20264;-75
2022/01/13 15:40:51;;;;;;;19.30;18.30;;;;;;;-141.02;100.00;84377.31;5133361;27;20611;-75
2022/01/13 15:43:19;;;;;;;20.90;19.70;;;;;;;-141.02;100.00;84352.03;5133594;27;20231;-74
2022/01/13 15:45:46;;;;;;;18.63;17.70;;;;;;;-141.02;100.00;84369.53;5133262;27;20211;-74
2022/01/13 15:48:15;;;;;;;18.93;17.97;;;;;;;-141.02;100.00;84365.63;5133419;27;20319;-74
2022/01/13 15:50:42;;;;;;;23.47;21.97;;;;;;;-141.02;100.00;84289.84;5133219;27;20245;-74
2022/01/13 15:53:10;;;;;;;21.17;20.17;;;;;;;-141.02;100.00;84221.84;5133503;27;20250;-74
2022/01/13 15:55:37;;;;;;;20.60;19.50;;;;;;;-141.02;100.00;84352.03;5133413;27;20661;-74
2022/01/13 15:58:05;;;;;;;20.10;19.03;;;;;;;-141.02;100.00;84383.13;5133061;27;20226;-74
2022/01/13 16:00:35;;;;;;;19.30;18.40;;;;;;;-141.02;100.00;84336.50;5133418;27;20279;-73
2022/01/13 16:03:03;;;;;;;19.43;18.43;;;;;;;-141.02;100.00;84348.16;5133593;27;20366;-73
2022/01/13 16:05:32;;;;;;;18.13;17.23;;;;;;;-141.02;100.00;84264.59;5133942;27;20200;-74
2022/01/13 16:07:59;;;;;;;17.87;17.07;;;;;;;-141.02;100.00;84322.88;5132912;27;20596;-74
2022/01/13 16:10:26;;;;;;;19.60;18.50;;;;;;;-141.02;100.00;84301.50;5133242;28;20197;-73
2022/01/13 16:12:53;;;;;;;18.10;17.30;;;;;;;-141.02;100.00;84363.69;5132945;28;20249;-73
2022/01/13 16:15:20;;;;;;;20.50;19.40;;;;;;;-141.02;100.00;84355.94;5132950;27;20196;-74
2022/01/13 16:17:50;;;;;;;20.80;19.63;;;;;;;-141.02;100.00;84284.03;5132818;27;20281;-74
2022/01/13 16:20:18;;;;;;;19.33;18.43;;;;;;;-141.02;100.00;84095.53;5133116;28;20199;-74
2022/01/13 16:22:47;;;;;;;22.33;20.97;;;;;;;-141.02;100.00;84365.63;5133198;28;20224;-74
2022/01/13 16:25:15;;;;;;;19.10;18.20;;;;;;;-141.02;100.00;84336.50;5132746;28;20196;-73
2022/01/13 16:27:42;;;;;;;34.10;31.10;;;;;;;-141.02;100.00;84363.69;5133053;27;20224;-74
2022/01/13 16:30:13;;;;;;;20.40;19.30;;;;;;;-141.02;100.00;84359.81;5132786;28;20192;-73
2022/01/13 16:32:43;;;;;;;19.27;18.37;;;;;;;-141.02;100.00;84390.91;5133148;27;20188;-74
2022/01/13 16:35:12;;;;;;;19.30;18.40;;;;;;;-141.02;100.00;84367.59;5133065;27;20279;-74
2022/01/13 16:37:41;;;;;;;19.40;18.30;;;;;;;-141.02;100.00;84371.47;5133084;27;20200;-73
2022/01/13 16:40:12;;;;;;;18.77;17.87;;;;;;;-141.02;100.00;84319.00;5132676;28;20226;-73
2022/01/13 16:42:43;;;;;;;18.77;17.87;;;;;;;-141.02;100.00;84336.50;5132709;27;20218;-74
2022/01/13 16:45:13;;;;;;;18.00;17.20;;;;;;;-141.02;100.00;84350.09;5133001;28;20196;-73
2022/01/13 16:47:40;;;;;;;19.90;18.90;;;;;;;-141.02;100.00;84353.97;5132835;27;20281;-73
2022/01/13 16:50:10;;;;;;;18.20;17.37;;;;;;;-141.02;100.00;84387.03;5132579;27;20566;-73
2022/01/13 16:52:37;;;;;;;17.80;17.00;;;;;;;-141.02;100.00;84352.03;5132916;27;20250;-73
2022/01/13 16:55:06;;;;;;;18.40;17.57;;;;;;;-141.02;100.00;84371.47;5136489;27;20253;-73
2022/01/13 16:57:34;;;;;;;21.73;19.90;;;;;;;-141.02;100.00;84319.00;5136707;27;20196;-73
2022/01/13 17:00:02;;;;;;;18.63;17.50;;;;;;;-141.02;100.00;84363.69;5136336;27;20224;-73
2022/01/13 17:02:29;;;;;;;20.03;19.03;;;;;;;-141.02;100.00;84330.66;5136657;27;20266;-73
2022/01/13 17:04:56;;;;;;;19.40;18.40;;;;;;;-141.02;100.00;84289.84;5136472;27;20253;-73
2022/01/13 17:07:23;;;;;;;18.40;17.50;;;;;;;-141.02;100.00;84363.69;5136456;27;20228;-73
2022/01/13 17:09:50;;;;;;;18.03;17.23;;;;;;;-141.02;100.00;84336.50;5136144;27;20654;-73
2022/01/13 17:12:17;;;;;;;20.13;18.90;;;;;;;-141.02;100.00;84328.72;5136465;27;20193;-73
2022/01/13 17:14:46;;;;;;;20.33;19.17;;;;;;;-141.02;100.00;84353.97;5136064;27;20245;-73
2022/01/13 17:17:13;;;;;;;18.63;17.73;;;;;;;-141.02;100.00;84371.47;5135749;27;20778;-73
2022/01/13 17:19:40;;;;;;;20.33;19.03;;;;;;;-141.02;100.00;84363.69;5135981;27;20239;-73
2022/01/13 17:22:08;;;;;;;34.07;21.67;;;;;;;-141.02;100.00;84348.16;5135893;27;20255;-73
2022/01/13 17:24:35;;;;;;;18.60;17.70;;;;;;;-141.02;100.00;84361.75;5135821;27;20597;-73
2022/01/13 17:27:03;;;;;;;22.37;20.43;;;;;;;-141.02;100.00;84359.81;5135835;27;20193;-73
2022/01/13 17:29:30;;;;;;;19.43;18.43;;;;;;;-141.02;100.00;84355.94;5135728;27;20220;-73
2022/01/13 17:31:58;;;;;;;18.13;17.33;;;;;;;-141.02;100.00;84336.50;5135717;27;20721;-73
2022/01/13 17:34:25;;;;;;;18.60;17.70;;;;;;;-141.02;100.00;84379.25;5135914;27;20279;-73
2022/01/13 17:36:53;;;;;;;18.50;17.60;;;;;;;-141.02;100.00;84344.25;5135995;27;20571;-73
2022/01/13 17:39:20;;;;;;;17.77;16.97;;;;;;;-141.02;100.00;84348.16;5135624;27;20739;-73
2022/01/13 17:41:48;;;;;;;25.30;22.60;;;;;;;-141.02;100.00;84336.50;5135628;27;20217;-73
2022/01/13 17:44:17;;;;;;;17.47;16.67;;;;;;;-141.02;100.00;84254.88;5135537;27;20228;-73
2022/01/13 17:46:45;;;;;;;16.73;16.03;;;;;;;-141.02;100.00;84383.13;5135446;27;20204;-73
2022/01/13 17:49:13;;;;;;;18.07;17.17;;;;;;;-141.02;100.00;84319.00;5135428;27;20231;-73
2022/01/13 17:51:40;;;;;;;18.93;18.03;;;;;;;-141.02;100.00;84348.16;5135723;27;20197;-73
2022/01/13 17:54:07;;;;;;;18.13;17.33;;;;;;;-141.02;100.00;84336.50;5135711;27;20247;-73
2022/01/13 17:56:34;;;;;;;18.30;17.40;;;;;;;-141.02;100.00;84379.25;5135300;27;20784;-73
2022/01/13 17:59:01;;;;;;;21.17;19.90;;;;;;;-141.02;100.00;84297.63;5135552;27;20220;-73
2022/01/13 18:01:28;;;;;;;20.70;19.20;;;;;;;-141.02;100.00;84371.47;5135505;27;20227;-74
2022/01/13 18:03:55;;;;;;;18.90;18.00;;;;;;;-141.02;100.00;84396.72;5134977;27;20565;-74
2022/01/13 18:06:24;;;;;;;19.17;18.23;;;;;;;-141.02;100.00;84348.16;5135096;27;20189;-73
2022/01/13 18:08:51;;;;;;;18.20;17.40;;;;;;;-141.02;100.00;84359.81;5135274;27;20281;-73
2022/01/13 18:11:18;;;;;;;19.13;18.23;;;;;;;-141.02;100.00;84324.84;5135308;27;20224;-74
2022/01/13 18:13:45;;;;;;;18.73;17.83;;;;;;;-141.02;100.00;84317.06;5135002;27;20196;-73
2022/01/13 18:16:13;;;;;;;19.77;18.60;;;;;;;-141.02;100.00;84336.50;5134629;27;20224;-73
2022/01/13 18:18:40;;;;;;;22.57;20.80;;;;;;;-141.02;100.00;84344.25;5135244;27;20184;-73
2022/01/13 18:21:08;;;;;;;22.70;21.40;;;;;;;-141.02;100.00;84375.34;5134779;27;20615;-74
2022/01/13 18:23:36;;;;;;;17.97;17.17;;;;;;;-141.02;100.00;84379.25;5135072;27;20198;-74
2022/01/13 18:26:03;;;;;;;18.40;17.60;;;;;;;-141.02;100.00;84324.84;5135056;27;20189;-73
2022/01/13 18:28:32;;;;;;;18.20;17.40;;;;;;;-141.02;100.00;84320.94;5134566;27;20259;-73
2022/01/13 18:30:59;;;;;;;17.77;16.97;;;;;;;-141.02;100.00;84359.81;5134880;27;20203;-73
2022/01/13 18:33:26;;;;;;;20.17;18.97;;;;;;;-141.02;100.00;84363.69;5134799;27;20224;-74
2022/01/13 18:35:54;;;;;;;18.13;17.33;;;;;;;-141.02;100.00;84385.06;5134773;27;20203;-74
2022/01/13 18:38:21;;;;;;;18.27;17.47;;;;;;;-141.02;100.00;84371.47;5134739;27;20257;-73
2022/01/13 18:40:49;;;;;;;19.17;18.20;;;;;;;-141.02;100.00;84371.47;5134737;27;20242;-73
2022/01/13 18:43:19;;;;;;;18.60;17.60;;;;;;;-141.02;100.00;84340.38;5134630;27;20230;-73
2022/01/13 18:45:50;;;;;;;18.43;17.60;;;;;;;-141.02;100.00;84348.16;5134932;27;20199;-74
2022/01/13 18:48:17;;;;;;;17.93;17.13;;;;;;;-141.02;100.00;84352.03;5134234;27;20208;-74
2022/01/13 18:50:46;;;;;;;19.63;18.63;;;;;;;-141.02;100.00;84355.94;5134167;27;20234;-73
2022/01/13 18:53:16;;;;;;;18.70;17.80;;;;;;;-141.02;100.00;84390.91;5134492;27;20232;-74
2022/01/13 18:55:45;;;;;;;20.57;19.27;;;;;;;-141.02;100.00;84406.44;5134085;27;20570;-73
2022/01/13 18:58:14;;;;;;;20.27;18.77;;;;;;;-141.02;100.00;84387.03;5134389;27;20204;-73
2022/01/13 19:00:41;;;;;;;18.27;17.43;;;;;;;-141.02;100.00;84388.97;5134844;27;20228;-74
2022/01/13 19:03:08;;;;;;;19.07;18.17;;;;;;;-141.02;100.00;84357.88;5134248;27;20227;-73
2022/01/13 19:05:37;;;;;;;18.53;17.63;;;;;;;-141.02;100.00;84091.66;5133951;27;20193;-73
2022/01/13 19:08:06;;;;;;;21.33;19.50;;;;;;;-141.02;100.00;84285.97;5134015;27;20228;-74
2022/01/13 19:10:35;;;;;;;20.13;18.73;;;;;;;-141.02;100.00;84375.34;5133818;27;20556;-73
2022/01/13 19:13:03;;;;;;;17.00;16.30;;;;;;;-141.02;100.00;84359.81;5133749;27;20207;-73
2022/01/13 19:15:33;;;;;;;23.87;22.00;;;;;;;-141.02;100.00;84334.56;5133270;27;20222;-73
2022/01/13 19:18:02;;;;;;;17.20;16.50;;;;;;;-141.02;100.00;85860.38;5133523;27;20621;-73
2022/01/13 19:20:32;;;;;;;18.90;17.47;;;;;;;-141.02;100.00;84371.47;5134047;27;20197;-74
2022/01/13 19:23:02;;;;;;;19.50;18.60;;;;;;;-141.02;100.00;84363.69;5134477;27;20192;-73
2022/01/13 19:25:30;;;;;;;48.47;43.87;;;;;;;-141.02;100.00;83850.72;5133632;27;20195;-73
2022/01/13 19:27:58;;;;;;;17.57;16.87;;;;;;;-141.02;100.00;84334.56;5133753;27;20196;-75
2022/01/13 19:30:27;;;;;;;17.80;17.00;;;;;;;-141.02;100.00;84371.47;5133466;27;20208;-73
2022/01/13 19:32:56;;;;;;;18.10;17.10;;;;;;;-141.02;100.00;84319.00;5133453;27;20616;-73
2022/01/13 19:35:24;;;;;;;18.90;17.83;;;;;;;-141.02;100.00;84697.97;5133419;27;20193;-73
2022/01/13 19:37:52;;;;;;;17.80;17.00;;;;;;;-141.02;100.00;84383.13;5134268;27;20291;-73
2022/01/13 19:40:20;;;;;;;18.80;17.90;;;;;;;-141.02;100.00;84387.03;5133325;27;20263;-73
2022/01/13 19:42:48;;;;;;;19.90;18.90;;;;;;;-141.02;100.00;84398.69;5133619;27;20224;-73
2022/01/13 19:45:16;;;;;;;18.00;17.20;;;;;;;-141.02;100.00;84410.34;5133318;27;20231;-74
2022/01/13 19:47:46;;;;;;;21.63;20.10;;;;;;;-141.02;100.00;84359.81;5134299;27;20200;-74
2022/01/13 19:50:19;;;;;;;19.33;18.37;;;;;;;-141.02;100.00;84373.41;5133458;27;20248;-74
2022/01/13 19:52:47;;;;;;;18.80;17.90;;;;;;;-141.02;100.00;83854.59;5133119;27;20245;-73
2022/01/13 19:55:15;;;;;;;18.33;17.43;;;;;;;-141.02;100.00;84371.47;5133133;27;20192;-74
2022/01/13 19:57:42;;;;;;;19.43;18.43;;;;;;;-141.02;100.00;84138.28;5133071;27;20718;-74
2022/01/13 20:00:12;;;;;;;18.30;17.50;;;;;;;-141.02;100.00;84114.97;5133953;27;20200;-74
2022/01/13 20:02:40;;;;;;;17.40;16.70;;;;;;;-141.02;100.00;84383.13;5133097;27;20197;-73
2022/01/13 20:05:08;;;;;;;16.00;15.40;;;;;;;-141.02;100.00;84367.59;5132998;27;20207;-73
2022/01/13 20:07:37;;;;;;;18.83;17.60;;;;;;;-141.02;100.00;84388.97;5133306;28;20196;-73
2022/01/13 20:10:05;;;;;;;16.83;16.13;;;;;;;-141.02;100.00;84373.41;5133165;27;20260;-74
2022/01/13 20:12:34;;;;;;;17.93;17.13;;;;;;;-141.02;100.00;84355.94;5133238;28;20543;-73
2022/01/13 20:15:02;;;;;;;19.33;18.23;;;;;;;-141.02;100.00;84375.34;5132890;28;20203;-74
2022/01/13 20:17:29;;;;;;;28.43;21.10;;;;;;;-141.02;100.00;84375.34;5132862;28;20220;-74
2022/01/13 20:19:58;;;;;;;17.93;17.13;;;;;;;-141.02;100.00;84344.25;5133076;28;20633;-74
2022/01/13 20:22:25;;;;;;;18.03;17.23;;;;;;;-141.02;100.00;84367.59;5132916;28;20239;-74
2022/01/13 20:24:54;;;;;;;21.93;20.93;;;;;;;-141.02;100.00;84076.09;5133184;28;20224;-74
2022/01/13 20:27:21;;;;;;;21.73;20.43;;;;;;;-141.02;100.00;84192.69;5133107;27;20244;-74
2022/01/13 20:29:48;;;;;;;18.33;17.53;;;;;;;-141.02;100.00;84387.03;5136897;27;20284;-74
2022/01/13 20:32:15;;;;;;;16.87;16.17;;;;;;;-141.02;100.00;84064.44;5136918;27;20192;-74
2022/01/13 20:34:42;;;;;;;20.73;19.50;;;;;;;-141.02;100.00;84390.91;5138076;27;20205;-73
2022/01/13 20:37:09;;;;;;;18.23;17.43;;;;;;;-141.02;100.00;84429.78;5137174;27;20192;-73
2022/01/13 20:39:36;;;;;;;18.80;17.90;;;;;;;-141.02;100.00;84449.19;5137103;27;20200;-73
2022/01/13 20:42:06;;;;;;;18.80;17.90;;;;;;;-141.02;100.00;84437.53;5137000;27;20192;-74
2022/01/13 20:44:33;;;;;;;20.93;19.63;;;;;;;-141.02;100.00;84153.81;5136983;27;20196;-74
2022/01/13 20:47:00;;;;;;;18.67;17.77;;;;;;;-141.02;100.00;84422.00;5136669;27;20196;-73
2022/01/13 20:49:27;;;;;;;18.47;17.63;;;;;;;-141.02;100.00;84468.63;5136488;27;20285;-73
2022/01/13 20:51:54;;;;;;;17.93;17.13;;;;;;;-141.02;100.00;84427.81;5136586;27;20192;-75
2022/01/13 20:54:21;;;;;;;18.83;17.93;;;;;;;-141.02;100.00;84410.34;5136479;27;20253;-73
2022/01/13 20:56:48;;;;;;;18.70;17.80;;;;;;;-141.02;100.00;84425.88;5136456;27;20253;-73
2022/01/13 20:59:16;;;;;;;17.67;16.87;;;;;;;-141.02;100.00;84404.50;5136742;27;20193;-74
2022/01/13 21:01:44;;;;;;;19.30;18.40;;;;;;;-141.02;100.00;84433.66;5136317;27;20193;-74
2022/01/13 21:04:11;;;;;;;18.97;18.07;;;;;;;-141.02;100.00;84422.00;5136376;27;20730;-74
2022/01/13 21:06:38;;;;;;;19.37;18.40;;;;;;;-141.02;100.00;84439.50;5136458;27;20193;-74
2022/01/13 21:09:06;;;;;;;18.43;17.63;;;;;;;-141.02;100.00;84433.66;5136450;27;20629;-74
2022/01/13 21:11:33;;;;;;;22.10;20.80;;;;;;;-141.02;100.00;84460.88;5136575;27;20622;-75
2022/01/13 21:14:00;;;;;;;18.70;17.90;;;;;;;-141.02;100.00;84455.03;5136544;27;20246;-75
2022/01/13 21:16:29;;;;;;;17.90;17.10;;;;;;;-141.02;100.00;84429.78;5136360;27;20228;-73
2022/01/13 21:18:58;;;;;;;19.50;18.60;;;;;;;-141.02;100.00;84453.09;5136856;27;20219;-75
2022/01/13 21:21:25;;;;;;;18.13;17.33;;;;;;;-141.02;100.00;84433.66;5136104;27;20192;-75
2022/01/13 21:23:54;;;;;;;18.43;17.63;;;;;;;-141.02;100.00;84402.56;5137232;27;20253;-74
2022/01/13 21:26:21;;;;;;;17.67;16.87;;;;;;;-141.02;100.00;84375.34;5136310;27;20279;-75
2022/01/13 21:28:48;;;;;;;27.67;25.87;;;;;;;-141.02;100.00;84371.47;5135799;27;20628;-74
2022/01/13 21:31:16;;;;;;;18.77;17.97;;;;;;;-141.02;100.00;84423.94;5136109;27;20275;-74
2022/01/13 21:33:45;;;;;;;18.43;17.53;;;;;;;-141.02;100.00;84398.69;5136151;27;20200;-74
2022/01/13 21:36:13;;;;;;;17.30;16.60;;;;;;;-141.02;100.00;84406.44;5136134;27;20616;-75
2022/01/13 21:38:41;;;;;;;17.00;16.30;;;;;;;-141.02;100.00;84390.91;5135578;27;20241;-74
2022/01/13 21:41:08;;;;;;;18.10;17.23;;;;;;;-141.02;100.00;84352.03;5135686;27;20188;-74
2022/01/13 21:43:35;;;;;;;16.53;15.83;;;;;;;-141.02;100.00;84412.28;5135943;27;20192;-73
2022/01/13 21:46:03;;;;;;;17.13;16.43;;;;;;;-141.02;100.00;84406.44;5135582;27;20188;-74
2022/01/13 21:48:30;;;;;;;20.90;19.70;;;;;;;-141.02;100.00;84371.47;5136510;27;20551;-74
2022/01/13 21:51:00;;;;;;;19.17;18.27;;;;;;;-141.02;100.00;84394.78;5135742;27;20236;-74
2022/01/13 21:53:27;;;;;;;18.53;17.73;;;;;;;-141.02;100.00;83792.41;5135814;27;20289;-75
2022/01/13 21:55:54;;;;;;;18.27;17.47;;;;;;;-141.02;100.00;84414.22;5135726;27;20281;-74
2022/01/13 21:58:21;;;;;;;18.47;17.63;;;;;;;-141.02;100.00;84398.69;5135648;27;20279;-75
2022/01/13 22:00:49;;;;;;;17.13;16.43;;;;;;;-141.02;100.00;84410.34;5135580;27;20193;-73
2022/01/13 22:03:20;;;;;;;18.00;17.20;;;;;;;-141.02;100.00;84367.59;5135284;27;20193;-74
2022/01/13 22:05:49;;;;;;;19.23;18.03;;;;;;;-141.02;100.00;84445.31;5135438;27;20413;-74
2022/01/13 22:09:39;;;;;;;17.93;17.13;;;;;;;-141.02;100.00;84423.94;5135370;27;20192;-73
2022/01/13 22:11:18;;;;;;;18.20;17.40;;;;;;;-141.02;100.00;84418.13;5134965;27;20280;-73
2022/01/13 22:13:45;;;;;;;19.77;18.77;;;;;;;-141.02;100.00;84377.31;5135330;27;20275;-74
2022/01/13 22:16:13;;;;;;;20.50;19.27;;;;;;;-141.02;100.00;84439.50;5134776;27;20249;-73
2022/01/13 22:18:40;;;;;;;19.00;18.03;;;;;;;-141.02;100.00;84425.88;5135291;27;20208;-74
2022/01/13 22:21:08;;;;;;;17.87;17.07;;;;;;;-141.02;100.00;84375.34;5135104;27;20245;-74
2022/01/13 22:23:38;;;;;;;23.90;21.60;;;;;;;-141.02;100.00;84425.88;5134803;27;20192;-74
2022/01/13 22:26:05;;;;;;;16.50;15.80;;;;;;;-141.02;100.00;84390.91;5134695;27;20193;-73
2022/01/13 22:28:32;;;;;;;19.33;18.10;;;;;;;-141.02;100.00;84435.59;5135055;27;20673;-73
2022/01/13 22:31:00;;;;;;;17.73;16.90;;;;;;;-141.02;100.00;84429.78;5134557;27;20220;-74
2022/01/13 22:33:27;;;;;;;17.87;17.07;;;;;;;-141.02;100.00;84414.22;5135417;27;20196;-73
2022/01/13 22:35:55;;;;;;;20.20;19.10;;;;;;;-141.02;100.00;84429.78;5135504;27;20646;-73
2022/01/13 22:38:22;;;;;;;21.37;19.33;;;;;;;-141.02;100.00;84408.41;5134470;27;20193;-73
2022/01/13 22:40:53;;;;;;;20.37;19.37;;;;;;;-141.02;100.00;84441.44;5134481;27;20195;-73
2022/01/13 22:43:21;;;;;;;20.50;19.50;;;;;;;-141.02;100.00;84422.00;5134437;27;20650;-73
2022/01/13 22:45:49;;;;;;;21.57;19.87;;;;;;;-141.02;100.00;84458.91;5134337;27;20207;-73
2022/01/13 22:48:17;;;;;;;19.70;18.70;;;;;;;-141.02;100.00;85840.91;5134372;27;20199;-73
2022/01/13 22:50:44;;;;;;;22.00;20.80;;;;;;;-141.02;100.00;84458.91;5133367;27;20224;-74
2022/01/13 22:53:11;;;;;;;19.50;18.40;;;;;;;-141.02;100.00;84488.06;5134576;27;20197;-74
2022/01/13 22:55:38;;;;;;;20.10;19.00;;;;;;;-141.02;100.00;84478.34;5134458;27;20207;-74
2022/01/13 22:58:07;;;;;;;20.67;19.00;;;;;;;-141.02;100.00;84441.44;5134178;27;20191;-75
2022/01/13 23:00:44;;;;;;;19.77;18.50;;;;;;;-141.02;100.00;84464.75;5134198;27;20287;-73
2022/01/13 23:03:12;;;;;;;17.37;16.53;;;;;;;-141.02;100.00;84503.63;5134252;27;20277;-73
2022/01/13 23:05:39;;;;;;;25.87;23.27;;;;;;;-141.02;100.00;84499.72;5134259;27;20288;-73
2022/01/13 23:08:06;;;;;;;21.47;19.80;;;;;;;-141.02;100.00;84422.00;5134710;27;20296;-74
2022/01/13 23:10:34;;;;;;;20.13;18.63;;;;;;;-141.02;100.00;84507.50;5133907;27;20255;-74
2022/01/13 23:13:02;;;;;;;18.63;17.73;;;;;;;-141.02;100.00;84476.41;5133814;27;20196;-74
2022/01/13 23:23:44;;;;;;;18.57;17.57;;;;;;;-141.02;100.00;84472.53;5133843;27;20564;-75
2022/01/13 23:26:11;;;;;;;21.90;20.47;;;;;;;-141.02;100.00;84493.91;5134514;27;20638;-75
2022/01/13 23:28:38;;;;;;;18.77;17.97;;;;;;;-141.02;100.00;84480.31;5133684;27;20199;-74
2022/01/13 23:31:07;;;;;;;21.13;19.90;;;;;;;-141.02;100.00;84491.97;5133444;27;20224;-74